Time;durP1;ratioP1;P1;durP2;ratioP2;P2;SDS_P1;SDS_P2;PMS_P1;PMS_P2;Temp;Humidity;BMP_temperature;BMP_pressure;BME280_temperature;BME280_humidity;BME280_pressure;Samples;Min_cycle;Max_cycle;Signal;HPM_P1;HPM_P2
2021/07/31 00:00:27;;;;;;;4.60;1.73;;;;;;;16.98;57.02;98771.03;5012027;28;20029;-69
2021/07/31 00:02:56;;;;;;;7.60;1.92;;;;;;;16.94;57.05;98760.69;5012366;28;20033;-68
2021/07/31 00:05:21;;;;;;;6.45;2.00;;;;;;;16.92;56.99;98767.97;5010824;28;20537;-69
2021/07/31 00:07:46;;;;;;;6.57;2.47;;;;;;;16.87;57.58;98769.38;5010547;28;20168;-69
2021/07/31 00:10:12;;;;;;;6.07;2.45;;;;;;;16.81;57.55;98760.16;5012570;28;20117;-69
2021/07/31 00:12:38;;;;;;;6.35;2.33;;;;;;;16.75;57.70;98763.31;5013004;28;20034;-68
2021/07/31 00:15:04;;;;;;;5.35;2.10;;;;;;;16.73;58.19;98763.44;5012397;28;20041;-68
2021/07/31 00:17:30;;;;;;;4.95;1.95;;;;;;;16.72;58.37;98763.59;5010707;28;20026;-68
2021/07/31 00:19:56;;;;;;;10.50;2.55;;;;;;;16.71;57.98;98759.25;5011257;28;20076;-68
2021/07/31 00:22:21;;;;;;;5.47;2.60;;;;;;;16.70;58.63;98762.91;5012509;28;20034;-69
2021/07/31 00:24:46;;;;;;;4.53;2.00;;;;;;;16.66;58.57;98766.81;5010685;28;20037;-69
2021/07/31 00:27:12;;;;;;;4.85;2.00;;;;;;;16.64;58.63;98758.16;5011703;28;20433;-68
2021/07/31 00:29:37;;;;;;;5.90;1.90;;;;;;;16.61;58.60;98761.91;5012566;28;20026;-67
2021/07/31 00:32:02;;;;;;;5.32;2.47;;;;;;;16.63;58.75;98761.78;5010865;28;20458;-69
2021/07/31 00:34:28;;;;;;;6.68;2.45;;;;;;;16.61;58.84;98755.75;5011431;28;20502;-69
2021/07/31 00:36:53;;;;;;;9.95;2.83;;;;;;;16.62;58.94;98757.44;5011328;28;20061;-67
2021/07/31 00:39:18;;;;;;;6.40;2.88;;;;;;;16.62;59.09;98758.28;5011746;28;20494;-68
2021/07/31 00:41:44;;;;;;;4.70;2.40;;;;;;;16.63;59.20;98759.13;5011495;28;20387;-68
2021/07/31 00:44:09;;;;;;;8.48;2.50;;;;;;;16.65;59.12;98757.16;5011917;28;20048;-68
2021/07/31 00:46:34;;;;;;;6.18;2.15;;;;;;;16.67;59.39;98757.88;5011645;28;20112;-68
2021/07/31 00:49:00;;;;;;;7.93;2.60;;;;;;;16.66;59.07;98759.69;5011046;28;20037;-68
2021/07/31 00:51:25;;;;;;;5.20;1.90;;;;;;;16.67;59.33;98757.88;5009209;28;20034;-67
2021/07/31 00:53:53;;;;;;;5.50;1.80;;;;;;;16.69;58.96;98754.09;5011353;28;20033;-68
2021/07/31 00:56:18;;;;;;;4.05;1.88;;;;;;;16.71;59.20;98761.91;5009508;28;20034;-67
2021/07/31 00:58:43;;;;;;;4.90;2.05;;;;;;;16.72;59.19;98766.28;5011339;28;20486;-68
2021/07/31 01:01:09;;;;;;;5.65;2.15;;;;;;;16.72;58.65;98763.59;4986289;28;20068;-69
2021/07/31 01:03:35;;;;;;;5.32;2.42;;;;;;;16.71;58.87;98767.22;5010920;28;20034;-69
2021/07/31 01:06:00;;;;;;;14.88;3.10;;;;;;;16.69;59.09;98770.06;5011654;28;20079;-69
2021/07/31 01:08:26;;;;;;;5.72;2.28;;;;;;;16.66;59.14;98774.78;5009497;28;20040;-69
2021/07/31 01:10:52;;;;;;;6.15;2.30;;;;;;;16.63;59.20;98772.41;5011230;28;20397;-69
2021/07/31 01:13:18;;;;;;;5.07;2.33;;;;;;;16.60;59.07;98775.38;5009828;28;20030;-69
2021/07/31 01:15:58;;;;;;;5.22;2.25;;;;;;;16.59;59.06;98774.53;5010709;28;20042;-69
2021/07/31 01:18:23;;;;;;;3.50;2.17;;;;;;;16.58;59.32;98778.16;5010509;28;20034;-69
2021/07/31 01:20:48;;;;;;;6.28;2.05;;;;;;;16.59;59.05;98785.19;5010862;28;20667;-68
2021/07/31 01:23:14;;;;;;;5.20;2.22;;;;;;;16.60;59.17;98776.19;5010563;28;20108;-69
2021/07/31 01:25:39;;;;;;;7.32;2.33;;;;;;;16.60;58.97;98778.84;5010911;28;20461;-68
2021/07/31 01:28:04;;;;;;;8.32;2.72;;;;;;;16.62;59.07;98776.91;5011355;28;20441;-67
2021/07/31 01:30:30;;;;;;;8.13;2.42;;;;;;;16.65;59.07;98775.78;5010814;28;20033;-68
2021/07/31 01:32:55;;;;;;;5.93;2.05;;;;;;;16.62;59.22;98774.25;5011088;28;20463;-68
2021/07/31 01:35:20;;;;;;;7.00;2.03;;;;;;;16.65;58.87;98771.28;5010603;28;20034;-69
2021/07/31 01:37:46;;;;;;;4.38;2.00;;;;;;;16.69;58.94;98772.72;5011553;28;20034;-69
2021/07/31 01:40:12;;;;;;;4.55;2.38;;;;;;;16.68;59.06;98770.19;5002865;28;20033;-69
2021/07/31 01:42:37;;;;;;;5.15;2.00;;;;;;;16.66;58.98;98766.81;5010602;28;20061;-68
2021/07/31 01:45:04;;;;;;;4.65;2.42;;;;;;;16.64;58.96;98758.16;5010810;28;20033;-68
2021/07/31 01:47:29;;;;;;;12.35;2.83;;;;;;;16.57;59.21;98762.34;5010198;28;20037;-69
2021/07/31 01:49:55;;;;;;;4.63;1.90;;;;;;;16.52;59.07;98762.75;5010253;28;20046;-69
2021/07/31 01:52:20;;;;;;;6.50;1.88;;;;;;;16.49;59.20;98769.19;5010310;28;20041;-69
2021/07/31 01:54:45;;;;;;;7.60;2.80;;;;;;;16.46;59.60;98765.94;5010431;28;20034;-68
2021/07/31 01:57:11;;;;;;;11.15;2.53;;;;;;;16.40;59.57;98762.03;5010046;28;20520;-69
2021/07/31 01:59:36;;;;;;;8.38;3.10;;;;;;;16.40;59.63;98764.69;5008986;28;20462;-69
2021/07/31 02:02:01;;;;;;;5.65;2.17;;;;;;;16.42;59.70;98768.06;5010558;28;20033;-67
2021/07/31 02:04:27;;;;;;;5.82;2.30;;;;;;;16.44;59.82;98763.44;5010195;28;20069;-68
2021/07/31 02:06:52;;;;;;;4.20;2.28;;;;;;;16.47;59.40;98759.66;5008772;28;20401;-68
2021/07/31 02:09:17;;;;;;;5.28;2.63;;;;;;;16.46;59.73;98760.63;5010027;28;20489;-67
2021/07/31 02:11:43;;;;;;;5.25;1.98;;;;;;;16.45;59.40;98757.13;5009918;28;20048;-67
2021/07/31 02:14:08;;;;;;;7.18;2.55;;;;;;;16.46;59.48;98766.78;4997485;28;20030;-68
2021/07/31 02:16:33;;;;;;;6.00;2.30;;;;;;;16.46;59.91;98769.44;4990631;28;20034;-68
2021/07/31 02:18:59;;;;;;;8.10;2.58;;;;;;;16.45;59.82;98764.28;4990336;28;20048;-68
2021/07/31 02:21:24;;;;;;;7.03;2.72;;;;;;;16.46;59.87;98777.44;4990303;28;20499;-68
2021/07/31 02:23:50;;;;;;;6.55;2.20;;;;;;;16.46;59.82;98768.63;4990063;28;20545;-69
2021/07/31 02:26:15;;;;;;;5.82;2.30;;;;;;;16.48;59.80;98767.50;4990176;28;20054;-68
2021/07/31 02:28:40;;;;;;;11.13;4.18;;;;;;;16.49;59.82;98771.84;4990032;28;20073;-67
2021/07/31 02:31:06;;;;;;;5.25;1.92;;;;;;;16.50;59.94;98767.38;4989889;28;20491;-69
2021/07/31 02:33:32;;;;;;;5.20;2.15;;;;;;;16.50;60.26;98776.19;4990722;28;20608;-69
2021/07/31 02:36:02;;;;;;;3.45;1.98;;;;;;;16.48;60.33;98772.81;4989887;28;20038;-69
2021/07/31 02:38:27;;;;;;;5.47;2.75;;;;;;;16.47;60.25;98778.28;4989690;28;20041;-69
2021/07/31 02:40:52;;;;;;;4.68;2.38;;;;;;;16.48;60.30;98770.16;4990018;28;20113;-68
2021/07/31 02:43:18;;;;;;;10.32;2.80;;;;;;;16.42;60.60;98770.72;4990087;28;20054;-69
2021/07/31 02:45:43;;;;;;;6.72;2.42;;;;;;;16.43;60.69;98768.91;4989796;28;20384;-68
2021/07/31 02:48:08;;;;;;;6.47;2.50;;;;;;;16.41;60.58;98762.88;4989588;28;20038;-69
2021/07/31 02:50:34;;;;;;;5.20;2.08;;;;;;;16.38;60.98;98758.66;4990353;28;20061;-69
2021/07/31 02:52:59;;;;;;;14.43;2.55;;;;;;;16.42;60.95;98764.56;5005278;28;20029;-68
2021/07/31 02:55:24;;;;;;;10.73;2.35;;;;;;;16.36;61.05;98749.97;5009531;28;20049;-69
2021/07/31 02:57:49;;;;;;;5.85;3.15;;;;;;;16.35;60.93;98758.13;5009455;28;20061;-69
2021/07/31 03:00:15;;;;;;;6.10;2.95;;;;;;;16.34;61.01;98756.41;5009196;28;20033;-68
2021/07/31 03:02:40;;;;;;;5.95;2.28;;;;;;;16.36;61.19;98747.31;5009468;28;20038;-70
2021/07/31 03:05:06;;;;;;;3.80;1.80;;;;;;;16.37;61.07;98749.03;5008301;28;20107;-69
2021/07/31 03:07:32;;;;;;;12.48;3.28;;;;;;;16.34;61.09;98740.47;5009036;28;20427;-68
2021/07/31 03:10:00;;;;;;;9.07;2.90;;;;;;;16.31;61.58;98745.06;5009360;28;20351;-68
2021/07/31 03:12:26;;;;;;;7.68;3.80;;;;;;;16.28;61.52;98748.00;5009530;28;20096;-68
2021/07/31 03:14:52;;;;;;;7.03;2.80;;;;;;;16.30;61.27;98740.75;5012947;28;20486;-68
2021/07/31 03:17:17;;;;;;;7.93;2.63;;;;;;;16.32;61.47;98748.59;5012940;28;20117;-68
2021/07/31 03:19:44;;;;;;;7.78;2.90;;;;;;;16.33;61.30;98746.75;5013130;28;20115;-67
2021/07/31 03:22:09;;;;;;;5.85;2.15;;;;;;;16.28;61.66;98742.69;5013101;28;20034;-67
2021/07/31 03:24:35;;;;;;;4.32;2.40;;;;;;;16.27;61.57;98749.00;5025803;28;20037;-68
2021/07/31 03:27:00;;;;;;;7.00;3.10;;;;;;;16.23;62.24;98752.91;5032405;28;20463;-69
2021/07/31 03:29:26;;;;;;;8.25;2.63;;;;;;;16.21;62.15;98741.56;5032947;28;20030;-69
2021/07/31 03:31:52;;;;;;;5.85;2.83;;;;;;;16.21;62.34;98746.03;5032781;28;20041;-69
2021/07/31 03:34:18;;;;;;;7.28;2.47;;;;;;;16.17;62.27;98750.81;5032620;28;20034;-69
2021/07/31 03:36:43;;;;;;;9.07;3.13;;;;;;;16.17;62.84;98745.47;5032612;28;20547;-68
2021/07/31 03:39:09;;;;;;;7.10;2.65;;;;;;;16.17;62.46;98747.28;5032682;28;20087;-68
2021/07/31 03:41:34;;;;;;;6.35;2.88;;;;;;;16.15;63.04;98744.78;5032923;28;20048;-68
2021/07/31 03:43:59;;;;;;;7.70;3.30;;;;;;;16.10;63.07;98739.03;5032671;28;20041;-67
2021/07/31 03:46:25;;;;;;;4.90;2.60;;;;;;;16.10;62.75;98742.53;5032079;28;20042;-69
2021/07/31 03:48:50;;;;;;;4.93;2.55;;;;;;;16.09;63.25;98754.13;5032352;28;20060;-68
2021/07/31 03:51:16;;;;;;;11.02;3.33;;;;;;;16.08;63.41;98759.59;5026540;28;20084;-70
2021/07/31 03:53:41;;;;;;;14.00;2.90;;;;;;;16.03;63.55;98754.69;5012435;28;20030;-69
2021/07/31 03:56:07;;;;;;;4.70;2.35;;;;;;;16.02;63.80;98752.13;5012835;28;20042;-69
2021/07/31 03:58:33;;;;;;;8.38;2.88;;;;;;;16.03;63.64;98753.84;5012276;28;20030;-68
2021/07/31 04:00:58;;;;;;;5.03;2.42;;;;;;;16.05;63.05;98751.91;5012727;28;20081;-69
2021/07/31 04:03:24;;;;;;;7.25;3.05;;;;;;;16.03;63.71;98743.19;5012437;28;20490;-68
2021/07/31 04:05:50;;;;;;;7.55;3.58;;;;;;;16.03;63.84;98749.34;5012502;28;20136;-68
2021/07/31 04:08:15;;;;;;;10.75;3.15;;;;;;;16.01;63.90;98759.28;5011820;28;20061;-69
2021/07/31 04:10:41;;;;;;;9.60;2.83;;;;;;;16.01;63.74;98758.44;5018738;28;20029;-68
2021/07/31 04:13:07;;;;;;;10.27;3.95;;;;;;;16.01;64.02;98751.31;5031410;28;20490;-67
2021/07/31 04:15:32;;;;;;;6.07;2.67;;;;;;;16.02;63.57;98768.09;5031959;28;20052;-68
2021/07/31 04:17:57;;;;;;;8.40;3.00;;;;;;;16.02;63.63;98768.94;5030719;28;20034;-68
2021/07/31 04:20:23;;;;;;;10.15;3.17;;;;;;;16.02;63.71;98774.28;5031866;28;20436;-69
2021/07/31 04:22:48;;;;;;;6.78;3.40;;;;;;;16.04;63.71;98774.13;5031720;28;20041;-70
2021/07/31 04:25:14;;;;;;;7.28;3.03;;;;;;;16.03;63.85;98770.63;5031330;28;20481;-69
2021/07/31 04:27:40;;;;;;;5.45;3.08;;;;;;;16.02;63.59;98768.09;5031532;28;20036;-70
2021/07/31 04:30:06;;;;;;;8.52;2.80;;;;;;;16.01;64.28;98774.41;5032322;28;20064;-69
2021/07/31 04:32:31;;;;;;;7.28;3.45;;;;;;;15.96;64.10;98774.78;5031685;28;20546;-70
2021/07/31 04:34:57;;;;;;;11.50;3.97;;;;;;;15.92;64.20;98765.41;5031483;28;20125;-69
2021/07/31 04:37:22;;;;;;;10.88;3.28;;;;;;;15.91;64.52;98774.34;5031300;28;20056;-68
2021/07/31 04:39:48;;;;;;;7.03;3.00;;;;;;;15.90;64.36;98767.38;5031352;28;20055;-67
2021/07/31 04:42:13;;;;;;;6.80;2.75;;;;;;;15.86;64.46;98765.94;5031047;28;20120;-68
2021/07/31 04:44:38;;;;;;;6.95;3.60;;;;;;;15.82;64.80;98764.53;5029976;28;20057;-68
2021/07/31 04:47:04;;;;;;;5.60;3.30;;;;;;;15.79;64.73;98762.97;5031330;28;20088;-68
2021/07/31 04:49:29;;;;;;;7.80;2.70;;;;;;;15.82;64.71;98769.84;5031361;28;20113;-69
2021/07/31 04:51:54;;;;;;;6.82;2.58;;;;;;;15.83;65.00;98774.19;5019482;28;20505;-68
2021/07/31 04:54:20;;;;;;;8.38;2.63;;;;;;;15.81;64.89;98776.97;5011310;28;20454;-69
2021/07/31 04:56:45;;;;;;;6.47;2.67;;;;;;;15.81;64.87;98781.47;5011136;28;20034;-70
2021/07/31 04:59:10;;;;;;;4.70;2.72;;;;;;;15.76;64.97;98784.50;5011771;28;20042;-67
2021/07/31 05:01:35;;;;;;;6.20;2.95;;;;;;;15.74;65.48;98783.81;5012203;28;20034;-68
2021/07/31 05:04:01;;;;;;;4.30;2.95;;;;;;;15.75;65.08;98797.91;5010714;28;20036;-68
2021/07/31 05:06:26;;;;;;;6.30;2.58;;;;;;;15.81;65.21;98811.53;5010997;28;20125;-68
2021/07/31 05:08:51;;;;;;;5.82;2.85;;;;;;;15.79;65.17;98800.19;5010583;28;20046;-69
2021/07/31 05:11:21;;;;;;;6.18;3.33;;;;;;;15.82;65.25;98807.88;5011191;28;20058;-69
2021/07/31 05:13:46;;;;;;;7.32;2.80;;;;;;;15.84;65.10;98807.75;5010902;28;20042;-67
2021/07/31 05:16:15;;;;;;;6.55;2.55;;;;;;;15.89;65.12;98806.38;5009342;28;20524;-66
2021/07/31 05:18:41;;;;;;;7.60;2.85;;;;;;;15.95;64.73;98801.50;5010858;28;20038;-66
2021/07/31 05:21:07;;;;;;;7.28;2.63;;;;;;;15.96;64.81;98804.03;5009669;28;20179;-67
2021/07/31 05:23:32;;;;;;;5.97;3.53;;;;;;;15.93;65.18;98798.16;5011324;28;20045;-66
2021/07/31 05:25:58;;;;;;;8.80;3.22;;;;;;;15.93;65.03;98814.09;5011140;28;20092;-66
2021/07/31 05:28:23;;;;;;;5.55;2.38;;;;;;;15.89;65.38;98817.00;5011038;28;20036;-68
2021/07/31 05:30:48;;;;;;;8.30;2.92;;;;;;;15.88;65.59;98823.31;5009956;28;20112;-66
2021/07/31 05:33:14;;;;;;;7.70;3.88;;;;;;;15.87;65.60;98820.78;5009290;28;20092;-67
2021/07/31 05:35:39;;;;;;;7.97;3.13;;;;;;;15.85;65.53;98825.38;5010113;28;20037;-67
2021/07/31 05:38:04;;;;;;;12.07;3.88;;;;;;;15.86;65.62;98827.09;5011028;28;20044;-66
2021/07/31 05:40:30;;;;;;;10.07;2.63;;;;;;;15.88;65.56;98827.78;5010585;28;20108;-66
2021/07/31 05:42:55;;;;;;;7.90;3.42;;;;;;;15.93;65.75;98833.56;5009443;28;20057;-68
2021/07/31 05:45:21;;;;;;;9.88;3.33;;;;;;;15.98;65.53;98827.84;5010388;28;20045;-66
2021/07/31 05:47:46;;;;;;;7.00;4.03;;;;;;;16.00;65.58;98824.06;5010554;28;20045;-66
2021/07/31 05:50:12;;;;;;;5.90;2.80;;;;;;;16.06;65.68;98836.81;5010486;28;20371;-66
2021/07/31 05:52:38;;;;;;;5.15;2.65;;;;;;;16.08;65.34;98826.91;5010815;28;20433;-67
2021/07/31 05:55:06;;;;;;;8.73;3.00;;;;;;;16.08;65.26;98834.88;5010338;28;20084;-68
2021/07/31 05:57:32;;;;;;;7.20;3.78;;;;;;;16.10;65.17;98830.25;5010457;28;20026;-66
2021/07/31 05:59:57;;;;;;;5.85;2.60;;;;;;;16.16;64.99;98825.38;5011282;28;20408;-66
2021/07/31 06:02:23;;;;;;;8.68;3.08;;;;;;;16.23;65.05;98837.16;5010831;28;20034;-66
2021/07/31 06:04:48;;;;;;;5.97;3.17;;;;;;;16.30;65.12;98831.16;5023796;28;20034;-66
2021/07/31 06:07:14;;;;;;;9.43;5.22;;;;;;;16.28;64.96;98829.63;5029856;28;20038;-67
2021/07/31 06:09:41;;;;;;;3.75;2.42;;;;;;;16.27;65.31;98847.41;5029885;28;20042;-66
2021/07/31 06:12:09;;;;;;;5.30;3.22;;;;;;;16.30;65.21;98835.66;5028741;28;20079;-67
2021/07/31 06:14:36;;;;;;;6.70;3.35;;;;;;;16.25;65.10;98837.88;5029684;28;20390;-68
2021/07/31 06:17:02;;;;;;;9.60;3.78;;;;;;;16.29;65.30;98839.28;5029507;28;20108;-67
2021/07/31 06:19:29;;;;;;;7.80;3.05;;;;;;;16.33;65.25;98843.34;5029692;28;20120;-66
2021/07/31 06:21:54;;;;;;;6.63;3.20;;;;;;;16.34;65.18;98844.19;5029180;28;20393;-68
2021/07/31 06:24:20;;;;;;;5.22;2.83;;;;;;;16.42;65.05;98845.22;5029626;28;20040;-66
2021/07/31 06:26:45;;;;;;;7.95;3.58;;;;;;;16.51;64.60;98856.84;5029158;28;20033;-67
2021/07/31 06:29:10;;;;;;;8.25;3.47;;;;;;;16.46;64.45;98857.25;5029737;28;20090;-68
2021/07/31 06:31:36;;;;;;;13.05;4.28;;;;;;;16.50;64.39;98858.66;5030303;28;20076;-67
2021/07/31 06:34:01;;;;;;;6.82;3.15;;;;;;;16.48;64.44;98873.91;5029961;28;20116;-67
2021/07/31 06:36:27;;;;;;;6.03;2.97;;;;;;;16.48;64.02;98863.28;5028976;28;20116;-68
2021/07/31 06:38:53;;;;;;;5.30;2.92;;;;;;;16.55;64.72;98862.75;5029025;28;20476;-67
2021/07/31 06:41:18;;;;;;;7.53;3.00;;;;;;;16.54;64.51;98867.22;5027590;28;20044;-67
2021/07/31 06:43:43;;;;;;;12.75;3.85;;;;;;;16.56;64.21;98867.06;5029457;28;20034;-66
2021/07/31 06:46:10;;;;;;;7.15;3.08;;;;;;;16.60;64.19;98865.84;5026445;28;20033;-67
2021/07/31 06:48:35;;;;;;;8.10;3.55;;;;;;;16.63;64.14;98870.88;5033253;28;20510;-65
2021/07/31 06:51:02;;;;;;;9.18;3.90;;;;;;;16.62;64.11;98878.03;5029302;28;20034;-66
2021/07/31 06:53:27;;;;;;;8.05;3.10;;;;;;;16.60;64.13;98874.66;5013749;28;20177;-66
2021/07/31 06:55:53;;;;;;;7.32;3.63;;;;;;;16.57;64.40;98872.28;5013384;28;20545;-66
2021/07/31 06:58:18;;;;;;;5.47;2.95;;;;;;;16.64;64.29;98872.59;5013226;28;20041;-66
2021/07/31 07:00:43;;;;;;;6.68;3.30;;;;;;;16.71;63.85;98879.88;5013645;28;20038;-68
2021/07/31 07:03:10;;;;;;;7.47;2.92;;;;;;;16.69;63.95;98881.84;5013582;28;20121;-66
2021/07/31 07:05:35;;;;;;;6.03;2.85;;;;;;;16.66;63.98;98886.56;5014028;28;20057;-68
2021/07/31 07:08:01;;;;;;;5.93;3.20;;;;;;;16.69;65.09;98878.34;5013184;28;20123;-66
2021/07/31 07:10:26;;;;;;;10.30;3.30;;;;;;;16.73;64.61;98879.72;5013174;28;20029;-66
2021/07/31 07:12:51;;;;;;;11.32;3.90;;;;;;;16.77;64.38;98867.84;5013407;28;20045;-66
2021/07/31 07:15:17;;;;;;;7.75;3.50;;;;;;;16.81;64.67;98873.75;5013233;28;20072;-67
2021/07/31 07:17:42;;;;;;;8.70;3.42;;;;;;;16.88;64.04;98875.75;5013450;28;20432;-69
2021/07/31 07:20:08;;;;;;;8.52;3.42;;;;;;;16.98;63.38;98877.56;5013737;28;20045;-69
2021/07/31 07:22:33;;;;;;;8.00;3.90;;;;;;;17.06;63.38;98883.03;5013357;28;20060;-69
2021/07/31 07:24:59;;;;;;;7.60;3.30;;;;;;;16.98;63.33;98886.38;5013440;28;20041;-69
2021/07/31 07:27:24;;;;;;;10.18;4.05;;;;;;;16.96;63.59;98888.34;5012672;28;20041;-69
2021/07/31 07:29:49;;;;;;;8.15;4.72;;;;;;;17.01;64.02;98893.28;5012707;28;20425;-68
2021/07/31 07:32:15;;;;;;;8.30;3.33;;;;;;;16.97;64.35;98889.19;5011938;28;20040;-68
2021/07/31 07:34:40;;;;;;;7.30;3.40;;;;;;;16.98;64.66;98888.19;5013040;28;20040;-69
2021/07/31 07:37:06;;;;;;;6.45;3.35;;;;;;;16.94;65.12;98898.31;5013195;28;20505;-69
2021/07/31 07:39:31;;;;;;;7.68;4.50;;;;;;;16.93;65.84;98892.13;5012827;28;20034;-70
2021/07/31 07:41:57;;;;;;;8.10;4.10;;;;;;;16.82;67.24;98905.56;5012618;28;20494;-69
2021/07/31 07:44:22;;;;;;;10.43;3.70;;;;;;;16.67;68.36;98907.72;5012853;28;20084;-69
2021/07/31 07:46:48;;;;;;;5.65;3.17;;;;;;;16.51;69.34;98904.72;5012743;28;20414;-68
2021/07/31 07:49:13;;;;;;;7.82;3.33;;;;;;;16.47;69.41;98911.31;5012619;28;20049;-70
2021/07/31 07:51:39;;;;;;;14.13;3.58;;;;;;;16.40;70.29;98911.00;5012771;28;20401;-68
2021/07/31 07:54:05;;;;;;;5.85;3.20;;;;;;;16.34;70.70;98908.03;5012193;28;20913;-69
2021/07/31 07:56:30;;;;;;;5.50;3.05;;;;;;;16.38;70.93;98909.47;5011502;28;20038;-66
2021/07/31 07:58:57;;;;;;;7.45;3.80;;;;;;;16.33;70.62;98909.84;5029588;28;20059;-68
2021/07/31 08:01:23;;;;;;;7.40;3.75;;;;;;;16.31;71.01;98914.47;5032436;28;20055;-69
2021/07/31 08:03:49;;;;;;;7.75;4.10;;;;;;;16.23;71.55;98915.13;5031258;28;20060;-68
2021/07/31 08:06:17;;;;;;;7.28;3.35;;;;;;;16.14;72.05;98913.25;5021981;28;20484;-67
2021/07/31 08:08:43;;;;;;;10.55;3.60;;;;;;;16.13;71.95;98921.38;5061765;28;20033;-69
2021/07/31 08:11:09;;;;;;;7.15;3.45;;;;;;;16.08;72.06;98922.63;5032787;28;20497;-68
2021/07/31 08:13:34;;;;;;;7.22;3.25;;;;;;;16.12;71.95;98919.69;5029854;28;20455;-69
2021/07/31 08:16:00;;;;;;;4.63;3.05;;;;;;;16.19;72.43;98918.19;5030860;28;20041;-70
2021/07/31 08:18:25;;;;;;;7.85;3.28;;;;;;;16.69;70.32;98915.59;5031749;28;20488;-69
2021/07/31 08:20:50;;;;;;;5.97;3.22;;;;;;;17.23;67.44;98918.78;5031713;28;20041;-69
2021/07/31 08:23:15;;;;;;;6.20;3.13;;;;;;;17.74;65.04;98915.81;5031904;28;20039;-68
2021/07/31 08:25:41;;;;;;;7.35;3.70;;;;;;;18.24;63.40;98910.25;5031813;28;20028;-68
2021/07/31 08:28:15;;;;;;;3.83;3.05;;;;;;;18.69;62.14;98910.50;5032027;28;20057;-68
2021/07/31 08:30:41;;;;;;;8.10;3.17;;;;;;;18.93;60.77;98910.81;5029905;28;20025;-68
2021/07/31 08:33:07;;;;;;;10.75;3.17;;;;;;;19.23;59.54;98919.47;5018925;28;20118;-67
2021/07/31 08:35:40;;;;;;;4.32;2.70;;;;;;;19.48;58.11;98907.97;5038670;28;20064;-74
2021/07/31 08:39:01;;;;;;;9.23;3.67;;;;;;;19.57;57.24;98916.09;4994167;28;20041;-72
2021/07/31 08:41:16;;;;;;;10.35;3.33;;;;;;;19.43;57.59;98915.63;5028097;28;20535;-67
2021/07/31 08:44:25;;;;;;;13.15;3.45;;;;;;;19.29;57.58;98924.19;5045187;28;20512;-69
2021/07/31 08:47:03;;;;;;;11.93;4.07;;;;;;;19.42;57.39;98921.97;4969880;28;20053;-68
2021/07/31 08:49:38;;;;;;;5.65;2.92;;;;;;;19.32;57.11;98915.88;5021986;28;20037;-70
2021/07/31 08:52:06;;;;;;;5.67;2.67;;;;;;;19.31;57.62;98903.50;5031479;28;20034;-68
2021/07/31 08:54:38;;;;;;;6.55;3.50;;;;;;;19.55;56.40;98924.25;5002261;28;20041;-70
2021/07/31 08:57:05;;;;;;;5.95;3.00;;;;;;;19.82;55.59;98915.31;5010923;28;20034;-66
2021/07/31 08:59:40;;;;;;;12.98;4.47;;;;;;;19.75;55.06;98916.94;5002573;28;20757;-69
2021/07/31 09:02:07;;;;;;;6.40;3.00;;;;;;;19.88;54.89;98916.50;5004844;28;20076;-70
2021/07/31 09:04:33;;;;;;;3.83;2.42;;;;;;;19.78;54.30;98919.28;5031954;28;20033;-71
2021/07/31 09:07:10;;;;;;;7.43;2.72;;;;;;;19.81;54.61;98921.63;5023290;28;20043;-70
2021/07/31 09:09:35;;;;;;;4.97;2.22;;;;;;;20.15;53.85;98912.84;5019952;28;20465;-69
2021/07/31 09:12:03;;;;;;;5.38;2.80;;;;;;;20.28;53.14;98921.31;5010605;28;20053;-69
2021/07/31 09:14:30;;;;;;;6.50;2.50;;;;;;;20.35;52.82;98924.16;5011129;28;20038;-70
2021/07/31 09:16:57;;;;;;;5.72;2.65;;;;;;;20.63;52.42;98921.34;5011105;28;20456;-70
2021/07/31 09:19:25;;;;;;;7.50;2.35;;;;;;;20.56;52.26;98931.84;5009552;28;20102;-69
2021/07/31 09:21:51;;;;;;;3.90;2.30;;;;;;;20.53;52.54;98927.63;5011101;28;20117;-69
2021/07/31 09:24:22;;;;;;;7.55;2.50;;;;;;;20.43;52.29;98931.38;4999799;28;20037;-68
2021/07/31 09:26:50;;;;;;;7.15;3.15;;;;;;;20.17;51.75;98937.63;5000441;28;20099;-68
2021/07/31 09:29:26;;;;;;;4.07;2.55;;;;;;;19.93;52.29;98920.38;5003746;28;20033;-69
2021/07/31 09:31:54;;;;;;;5.97;2.50;;;;;;;19.70;53.13;98932.59;5005575;28;20536;-69
2021/07/31 09:34:34;;;;;;;5.30;2.67;;;;;;;19.56;53.48;98935.78;4997168;28;20034;-67
2021/07/31 09:37:09;;;;;;;4.63;2.47;;;;;;;19.56;53.76;98930.44;5005553;28;20046;-68
2021/07/31 09:39:48;;;;;;;5.30;2.50;;;;;;;19.65;53.57;98926.84;5005448;28;20038;-69
2021/07/31 09:42:35;;;;;;;3.92;2.65;;;;;;;20.47;51.59;98927.41;5004053;28;20084;-68
2021/07/31 09:45:30;;;;;;;4.10;2.30;;;;;;;20.70;50.55;98925.88;5003661;28;20112;-67
2021/07/31 09:48:04;;;;;;;4.35;2.20;;;;;;;20.32;50.71;98933.34;5006545;28;20045;-68
2021/07/31 09:50:40;;;;;;;7.03;2.85;;;;;;;20.37;51.04;98932.88;5025320;28;20436;-69
2021/07/31 09:53:10;;;;;;;8.20;2.80;;;;;;;21.00;49.66;98935.19;4966598;28;20097;-69
2021/07/31 09:55:40;;;;;;;5.43;2.80;;;;;;;22.27;46.79;98941.16;5004446;28;20030;-69
2021/07/31 09:58:07;;;;;;;4.03;2.70;;;;;;;23.18;44.92;98923.66;4998889;28;20632;-69
2021/07/31 10:00:32;;;;;;;4.65;2.60;;;;;;;22.69;45.66;98934.63;5005911;28;20217;-69
2021/07/31 10:02:58;;;;;;;4.90;2.20;;;;;;;21.85;47.10;98932.28;5008339;28;20117;-69
2021/07/31 10:05:23;;;;;;;4.80;2.50;;;;;;;21.50;48.44;98936.13;5006828;28;20038;-69
2021/07/31 10:07:49;;;;;;;7.93;2.95;;;;;;;22.44;46.15;98932.03;5006214;28;20044;-69
2021/07/31 10:10:17;;;;;;;5.57;3.15;;;;;;;22.49;45.44;98928.84;5005220;28;20041;-68
2021/07/31 10:12:42;;;;;;;4.82;2.72;;;;;;;22.08;46.53;98935.13;5005180;28;20041;-69
2021/07/31 10:15:09;;;;;;;6.13;2.42;;;;;;;22.22;46.23;98935.44;5006701;28;20095;-69
2021/07/31 10:17:35;;;;;;;5.53;2.30;;;;;;;22.13;46.42;98923.88;5009942;28;20568;-69
2021/07/31 10:20:00;;;;;;;6.95;2.90;;;;;;;21.87;46.83;98940.16;5003497;28;20042;-69
2021/07/31 10:22:46;;;;;;;8.93;2.65;;;;;;;21.44;48.02;98942.19;5013723;28;20041;-69
2021/07/31 10:25:19;;;;;;;3.70;2.35;;;;;;;21.09;49.14;98938.72;5002935;28;20045;-69
2021/07/31 10:27:46;;;;;;;5.05;3.25;;;;;;;20.90;50.40;98939.84;4999840;28;20536;-68
2021/07/31 10:30:27;;;;;;;6.20;3.30;;;;;;;20.96;50.61;98949.06;5010975;28;20038;-69
2021/07/31 10:32:53;;;;;;;5.38;2.92;;;;;;;21.16;50.64;98942.41;5005838;28;20068;-68
2021/07/31 10:35:27;;;;;;;3.83;2.58;;;;;;;22.20;48.91;98951.75;5004571;28;20073;-68
2021/07/31 10:37:55;;;;;;;5.90;2.83;;;;;;;21.65;50.50;98947.03;5003112;28;20674;-74
2021/07/31 10:40:30;;;;;;;7.07;3.63;;;;;;;21.09;52.55;98949.44;5004571;28;20042;-72
2021/07/31 10:42:55;;;;;;;9.47;3.57;;;;;;;20.84;53.56;98950.38;5004634;28;20037;-74
2021/07/31 10:45:25;;;;;;;11.02;4.57;;;;;;;20.75;53.54;98947.66;5002584;28;20281;-71
2021/07/31 10:47:52;;;;;;;6.57;3.17;;;;;;;20.62;53.72;98951.78;5004319;28;20173;-72
2021/07/31 10:50:24;;;;;;;6.72;3.25;;;;;;;20.72;53.13;98955.16;5004562;28;20041;-72
2021/07/31 10:53:01;;;;;;;3.97;2.42;;;;;;;20.65;52.25;98956.81;5004890;28;20069;-71
2021/07/31 10:55:38;;;;;;;4.07;2.08;;;;;;;20.46;52.51;98949.84;5002614;28;20045;-70
2021/07/31 10:58:17;;;;;;;6.30;2.33;;;;;;;20.40;52.19;98961.16;5004196;28;20050;-71
2021/07/31 11:00:46;;;;;;;3.13;2.05;;;;;;;20.41;53.13;98960.19;5004290;28;20042;-72
2021/07/31 11:03:13;;;;;;;5.30;2.42;;;;;;;20.64;52.91;98953.28;5004085;28;20780;-71
2021/07/31 11:05:47;;;;;;;4.05;2.40;;;;;;;21.32;51.74;98948.84;5003042;28;20567;-71
2021/07/31 11:08:13;;;;;;;6.85;1.92;;;;;;;21.87;48.49;98958.94;5003914;28;20501;-71
2021/07/31 11:10:42;;;;;;;3.67;2.28;;;;;;;21.69;46.33;98960.97;5006060;28;20049;-72
2021/07/31 11:13:28;;;;;;;3.10;1.70;;;;;;;21.58;46.87;98964.81;5003791;28;20093;-71
2021/07/31 11:16:00;;;;;;;4.22;2.40;;;;;;;21.49;47.45;98957.78;4996721;28;20050;-72
2021/07/31 11:18:43;;;;;;;5.20;2.13;;;;;;;21.41;47.55;98961.25;5003692;28;20042;-70
2021/07/31 11:21:25;;;;;;;3.35;2.00;;;;;;;21.54;47.33;98967.00;5002071;28;20473;-71
2021/07/31 11:23:53;;;;;;;5.57;2.15;;;;;;;21.64;47.55;98974.88;5002947;28;20848;-71
2021/07/31 11:26:42;;;;;;;6.70;2.08;;;;;;;21.80;47.00;98968.69;4999819;28;20076;-71
2021/07/31 11:29:11;;;;;;;7.35;2.67;;;;;;;21.59;47.96;98967.34;4997892;28;20121;-71
2021/07/31 11:31:40;;;;;;;7.07;2.78;;;;;;;21.84;47.43;98959.28;4994162;28;20046;-73